Time;durP1;ratioP1;P1;durP2;ratioP2;P2;SDS_P1;SDS_P2;PMS_P1;PMS_P2;Temp;Humidity;BMP_temperature;BMP_pressure;BME280_temperature;BME280_humidity;BME280_pressure;Samples;Min_cycle;Max_cycle;Signal;HPM_P1;HPM_P2
2022/01/28 00:00:41;;;;;;;2.43;2.33;;;;;;;;;;5008393;28;20467;-65
2022/01/28 00:03:09;;;;;;;2.80;2.60;;;;;;;;;;5008993;28;20961;-65
2022/01/28 00:05:36;;;;;;;2.47;2.27;;;18.80;50.60;;;;;;5008925;28;20849;-65
2022/01/28 00:08:03;;;;;;;2.57;2.47;;;18.30;49.80;;;;;;5008653;28;20517;-64
2022/01/28 00:10:30;;;;;;;2.53;2.43;;;;;;;;;;5008293;28;20562;-64
2022/01/28 00:37:24;;;;;;;2.60;2.50;;;;;;;;;;5027067;28;20409;-64
2022/01/28 00:39:51;;;;;;;2.43;2.23;;;;;;;;;;5027680;28;20450;-65
2022/01/28 00:42:17;;;;;;;2.17;2.07;;;;;;;;;;5031287;28;20617;-66
2022/01/28 00:44:43;;;;;;;2.20;2.10;;;18.20;52.20;;;;;;5014886;28;20946;-66
2022/01/28 00:47:09;;;;;;;2.30;2.10;;;;;;;;;;5011996;28;20412;-65
2022/01/28 00:49:35;;;;;;;1.93;1.83;;;;;;;;;;5011691;28;20510;-64
2022/01/28 00:52:01;;;;;;;2.40;2.30;;;;;;;;;;5011980;28;20504;-65
2022/01/28 00:54:27;;;;;;;3.00;2.20;;;;;;;;;;5011907;28;20404;-65
2022/01/28 00:56:53;;;;;;;2.13;2.03;;;;;;;;;;5011549;28;20909;-64
2022/01/28 00:59:19;;;;;;;2.50;2.30;;;;;;;;;;5011998;28;20817;-64
2022/01/28 01:01:45;;;;;;;2.17;2.07;;;;;;;;;;5011286;28;20869;-64
2022/01/28 01:04:11;;;;;;;2.27;2.17;;;;;;;;;;5011610;28;20412;-65
2022/01/28 01:06:37;;;;;;;2.50;2.33;;;;;;;;;;5011749;28;20408;-66
2022/01/28 01:09:04;;;;;;;3.17;2.23;;;;;;;;;;5011177;28;20857;-65
2022/01/28 01:11:30;;;;;;;2.63;2.20;;;;;;;;;;5011307;28;20893;-65
2022/01/28 01:13:56;;;;;;;2.60;2.40;;;;;;;;;;5011309;28;20775;-66
2022/01/28 01:16:40;;;;;;;2.00;1.90;;;;;;;;;;5011828;28;20427;-65
2022/01/28 01:21:39;;;;;;;2.53;2.43;;;;;;;;;;5020528;28;20439;-64
2022/01/28 01:24:07;;;;;;;2.00;1.93;;;;;;;;;;5031041;28;20807;-65
2022/01/28 01:26:35;;;;;;;2.17;2.10;;;18.30;61.00;;;;;;5030591;28;20462;-65
2022/01/28 01:29:05;;;;;;;2.20;2.10;;;17.90;50.60;;;;;;5030867;28;20889;-65
2022/01/28 01:31:31;;;;;;;3.07;2.87;;;;;;;;;;5031127;28;20436;-65
2022/01/28 01:34:10;;;;;;;2.07;1.97;;;;;;;;;;5030754;28;20491;-65
2022/01/28 01:36:36;;;;;;;1.60;1.50;;;;;;;;;;5030648;28;20426;-64
2022/01/28 01:39:03;;;;;;;2.33;2.23;;;18.20;50.80;;;;;;5021092;28;20618;-64
2022/01/28 01:41:34;;;;;;;2.50;2.13;;;;;;;;;;5010603;28;20446;-65
2022/01/28 01:44:07;;;;;;;2.10;2.00;;;;;;;;;;5011405;28;20511;-65
2022/01/28 01:54:29;;;;;;;1.60;1.60;;;18.20;49.70;;;;;;5030195;28;20538;-65
2022/01/28 01:56:55;;;;;;;2.50;2.40;;;18.20;51.10;;;;;;5010566;28;20530;-65
2022/01/28 01:59:21;;;;;;;2.40;2.30;;;;;;;;;;5010285;28;20495;-65
2022/01/28 02:01:47;;;;;;;1.70;1.63;;;;;;;;;;5010151;28;20439;-64
2022/01/28 02:04:13;;;;;;;2.20;2.10;;;18.20;74.00;;;;;;5010564;28;21639;-65
2022/01/28 02:06:40;;;;;;;2.00;2.00;;;18.20;51.00;;;;;;5010784;28;20451;-65
2022/01/28 02:09:07;;;;;;;1.90;1.80;;;18.20;56.50;;;;;;5010414;28;20180;-64
2022/01/28 02:11:33;;;;;;;2.60;2.23;;;;;;;;;;5010323;28;20452;-64
2022/01/28 02:14:00;;;;;;;1.90;1.90;;;;;;;;;;5021578;28;20878;-64
2022/01/28 02:16:26;;;;;;;2.33;2.10;;;;;;;;;;5010559;28;20511;-65
2022/01/28 02:18:55;;;;;;;2.10;1.93;;;;;;;;;;5010071;28;20459;-65
2022/01/28 02:21:21;;;;;;;2.30;2.10;;;;;;;;;;5017656;28;21060;-65
2022/01/28 02:23:51;;;;;;;2.43;2.33;;;;;;;;;;5029783;28;20499;-65
2022/01/28 02:26:17;;;;;;;2.50;2.30;;;;;;;;;;5017984;28;21167;-64
2022/01/28 02:28:47;;;;;;;2.30;2.20;;;;;;;;;;5021035;28;20446;-64
2022/01/28 02:31:19;;;;;;;1.80;1.80;;;;;;;;;;5029606;28;20437;-65
2022/01/28 02:33:45;;;;;;;1.93;1.83;;;18.30;58.70;;;;;;5029824;28;20473;-65
2022/01/28 02:36:11;;;;;;;1.73;1.70;;;;;;;;;;5018512;28;20424;-65
2022/01/28 02:38:37;;;;;;;2.00;1.90;;;;;;;;;;5010063;28;20420;-64
2022/01/28 02:41:06;;;;;;;2.33;2.23;;;;;;;;;;5009729;28;20409;-65
2022/01/28 02:44:01;;;;;;;2.53;2.17;;;;;;;;;;5009832;28;20408;-65
2022/01/28 02:46:30;;;;;;;1.90;1.80;;;;;;;;;;5028995;28;20465;-65
2022/01/28 02:49:08;;;;;;;2.23;2.03;;;;;;;;;;5018052;28;20412;-64
2022/01/28 02:51:35;;;;;;;1.43;1.43;;;;;;;;;;5009004;28;20467;-64
2022/01/28 02:54:12;;;;;;;2.20;2.10;;;;;;;;;;5014319;28;20448;-65
2022/01/28 02:56:40;;;;;;;1.70;1.70;;;;;;;;;;5009814;28;20446;-65
2022/01/28 02:59:07;;;;;;;1.90;1.80;;;18.60;55.70;;;;;;5009501;28;20546;-64
2022/01/28 03:01:33;;;;;;;1.77;1.77;;;18.00;48.50;;;;;;5009211;28;20436;-64
2022/01/28 03:04:02;;;;;;;1.70;1.60;;;18.20;50.90;;;;;;5009356;28;20482;-65
2022/01/28 03:06:28;;;;;;;1.93;1.83;;;;;;;;;;5011529;28;20420;-64
2022/01/28 03:09:12;;;;;;;1.97;1.87;;;;;;;;;;5010297;28;20513;-65
2022/01/28 03:19:46;;;;;;;2.50;2.30;;;;;;;;;;5029154;28;20754;-65
2022/01/28 03:22:12;;;;;;;1.63;1.53;;;;;;;;;;5029699;28;20484;-65
2022/01/28 03:24:40;;;;;;;2.03;1.97;;;;;;;;;;5028816;28;20864;-65
2022/01/28 03:27:12;;;;;;;1.93;1.83;;;18.60;49.00;;;;;;5028504;28;20784;-64
2022/01/28 03:29:37;;;;;;;2.60;2.50;;;18.30;61.90;;;;;;5028796;28;20506;-65
2022/01/28 03:32:04;;;;;;;2.03;1.93;;;;;;;;;;5028578;28;20522;-65
2022/01/28 03:34:29;;;;;;;1.70;1.70;;;;;;;;;;5028861;28;20189;-65
2022/01/28 03:36:56;;;;;;;1.73;1.73;;;;;;;;;;5011928;28;20435;-64
2022/01/28 03:39:22;;;;;;;2.00;1.90;;;;;;;;;;5009053;28;20455;-65
2022/01/28 03:41:48;;;;;;;2.43;2.33;;;;;;;;;;5015056;28;20451;-65
2022/01/28 03:44:14;;;;;;;1.93;1.83;;;;;;;;;;5028723;28;20407;-65
2022/01/28 03:46:40;;;;;;;2.20;2.10;;;;;;;;;;5028073;28;20452;-65
2022/01/28 03:49:08;;;;;;;1.90;1.80;;;;;;;;;;5028528;28;20501;-65
2022/01/28 03:51:34;;;;;;;1.80;1.70;;;;;;;;;;5028059;28;20814;-64
2022/01/28 03:54:00;;;;;;;2.40;2.20;;;;;;;;;;5029136;28;20426;-65
2022/01/28 03:56:26;;;;;;;2.30;2.20;;;;;;;;;;5028532;28;20458;-65
2022/01/28 03:58:52;;;;;;;1.37;1.27;;;;;;;;;;5029016;28;20423;-65
2022/01/28 04:01:25;;;;;;;2.53;2.33;;;;;;;;;;5028812;28;20457;-64
2022/01/28 04:11:52;;;;;;;2.20;2.10;;;;;;;;;;5025023;28;20461;-65
2022/01/28 04:19:37;;;;;;;2.20;2.03;;;17.90;65.50;;;;;;5030114;28;20541;-66
2022/01/28 04:22:04;;;;;;;2.00;1.90;;;18.10;58.70;;;;;;5029089;28;20963;-65
2022/01/28 04:24:30;;;;;;;1.90;1.80;;;;;;;;;;5032712;28;20195;-65
2022/01/28 04:26:56;;;;;;;2.27;1.80;;;;;;;;;;5027856;28;20753;-65
2022/01/28 04:29:22;;;;;;;1.80;1.70;;;;;;;;;;5027011;28;20430;-64
2022/01/28 04:31:48;;;;;;;1.90;1.80;;;;;;;;;;5012440;28;20432;-65
2022/01/28 04:34:15;;;;;;;1.20;1.20;;;17.90;64.20;;;;;;5012794;28;20408;-65
2022/01/28 04:36:54;;;;;;;2.00;1.90;;;17.90;50.70;;;;;;5030823;28;20427;-64
2022/01/28 04:39:30;;;;;;;2.10;2.00;;;;;;;;;;5032439;28;20462;-64
2022/01/28 04:42:06;;;;;;;1.90;1.80;;;;;;;;;;5032261;28;20431;-65
2022/01/28 04:47:38;;;;;;;1.80;1.70;;;;;;;;;;5012678;28;20965;-64
2022/01/28 04:50:16;;;;;;;2.00;1.90;;;;;;;;;;5012262;28;20821;-64
2022/01/28 04:55:59;;;;;;;1.50;1.50;;;;;;;;;;5032111;28;20438;-64
2022/01/28 05:00:57;;;;;;;1.93;1.90;;;;;;;;;;5012032;28;20478;-64
2022/01/28 05:03:46;;;;;;;1.73;1.70;;;;;;;;;;5019437;28;20524;-64
2022/01/28 05:27:44;;;;;;;1.50;1.50;;;;;;;;;;5051128;28;20415;-64
2022/01/28 05:30:10;;;;;;;1.73;1.73;;;;;;;;;;5011629;28;20519;-64
2022/01/28 05:32:36;;;;;;;1.87;1.87;;;;;;;;;;5011384;28;20835;-64
2022/01/28 05:35:03;;;;;;;1.73;1.70;;;17.90;62.40;;;;;;5011383;28;20423;-65
2022/01/28 05:37:29;;;;;;;2.30;2.10;;;;;;;;;;5011930;28;20470;-64
2022/01/28 05:39:54;;;;;;;1.73;1.63;;;;;;;;;;5021068;28;20458;-64
2022/01/28 05:42:20;;;;;;;1.53;1.53;;;;;;;;;;5030948;28;20431;-64
2022/01/28 05:44:46;;;;;;;1.60;1.60;;;18.20;70.40;;;;;;5013704;28;20462;-65
2022/01/28 05:47:15;;;;;;;2.13;2.03;;;;;;;;;;5011308;28;20506;-64
2022/01/28 05:49:42;;;;;;;1.73;1.63;;;;;;;;;;5011233;28;20274;-64
2022/01/28 05:52:08;;;;;;;1.57;1.57;;;17.80;77.30;;;;;;5011149;28;20444;-64
2022/01/28 05:54:34;;;;;;;1.80;1.70;;;;;;;;;;5010731;28;20416;-64
2022/01/28 05:57:00;;;;;;;1.83;1.73;;;;;;;;;;5014712;28;20759;-64
2022/01/28 05:59:26;;;;;;;1.93;1.83;;;;;;;;;;5030766;28;20451;-64
2022/01/28 06:01:52;;;;;;;1.67;1.57;;;;;;;;;;5030131;28;20419;-64
2022/01/28 06:04:21;;;;;;;1.90;1.80;;;;;;;;;;5030970;28;20737;-64
2022/01/28 06:06:47;;;;;;;1.60;1.60;;;;;;;;;;5030762;28;20520;-64
2022/01/28 06:09:13;;;;;;;1.90;1.80;;;;;;;;;;5030544;28;20450;-64
2022/01/28 06:11:39;;;;;;;1.30;1.30;;;;;;;;;;5019759;28;20475;-63
2022/01/28 06:14:06;;;;;;;1.57;1.57;;;;;;;;;;5011762;28;20424;-64
2022/01/28 06:16:32;;;;;;;1.80;1.70;;;;;;;;;;5022816;28;20439;-64
2022/01/28 06:18:58;;;;;;;2.03;1.93;;;;;;;;;;5027002;28;20443;-64
2022/01/28 06:21:24;;;;;;;1.90;1.80;;;;;;;;;;5028260;28;20419;-64
2022/01/28 06:23:52;;;;;;;3.00;2.20;;;17.80;69.00;;;;;;5027208;28;20436;-64
2022/01/28 06:26:18;;;;;;;3.50;3.20;;;;;;;;;;5029647;28;20427;-72
2022/01/28 06:28:44;;;;;;;3.57;3.27;;;;;;;;;;5024735;28;21040;-64
2022/01/28 06:31:10;;;;;;;3.67;3.37;;;;;;;;;;5026701;28;20423;-64
2022/01/28 06:33:36;;;;;;;3.87;3.57;;;;;;;;;;5019358;28;20585;-64
2022/01/28 06:36:03;;;;;;;3.40;3.13;;;;;;;;;;5017171;28;20526;-65
2022/01/28 06:38:29;;;;;;;3.70;3.40;;;;;;;;;;5026001;28;20446;-64
2022/01/28 06:40:55;;;;;;;3.00;2.90;;;;;;;;;;5021133;28;20488;-64
2022/01/28 06:43:21;;;;;;;4.30;3.10;;;;;;;;;;5021548;28;20450;-64
2022/01/28 06:45:47;;;;;;;3.00;2.77;;;;;;;;;;5028373;28;20473;-64
2022/01/28 06:48:13;;;;;;;3.10;2.93;;;17.80;66.30;;;;;;5029576;28;20408;-63
2022/01/28 06:50:42;;;;;;;2.73;2.63;;;18.10;50.40;;;;;;5029409;28;20442;-64
2022/01/28 06:53:09;;;;;;;3.17;2.93;;;18.00;58.50;;;;;;5027651;28;20451;-64
2022/01/28 06:55:35;;;;;;;3.17;3.00;;;;;;;;;;5029529;28;20446;-64
2022/01/28 06:58:01;;;;;;;3.33;2.80;;;;;;;;;;5024514;28;20447;-64
2022/01/28 07:00:27;;;;;;;3.00;2.90;;;;;;;;;;5018985;28;20471;-64
2022/01/28 07:02:53;;;;;;;2.73;2.53;;;;;;;;;;5029133;28;20585;-64
2022/01/28 07:05:19;;;;;;;2.83;2.40;;;;;;;;;;5029081;28;20451;-64
2022/01/28 07:07:47;;;;;;;2.13;1.97;;;;;;;;;;5029183;28;20474;-64
2022/01/28 07:10:12;;;;;;;2.20;2.10;;;18.00;70.10;;;;;;5015445;28;20905;-64
2022/01/28 07:12:38;;;;;;;2.70;2.50;;;18.00;67.90;;;;;;5028092;28;20454;-64
2022/01/28 07:15:04;;;;;;;2.17;2.00;;;17.90;50.10;;;;;;5023610;28;20199;-63
2022/01/28 07:17:30;;;;;;;2.17;2.07;;;;;;;;;;5024580;28;20227;-63
2022/01/28 07:19:56;;;;;;;1.80;1.70;;;;;;;;;;5027163;28;20455;-64
2022/01/28 07:22:22;;;;;;;1.63;1.63;;;;;;;;;;5044613;28;20905;-63
2022/01/28 07:24:48;;;;;;;2.23;2.13;;;;;;;;;;5044645;28;20415;-63
2022/01/28 07:27:19;;;;;;;1.87;1.77;;;;;;;;;;5018618;28;20424;-63
2022/01/28 07:29:47;;;;;;;2.17;2.07;;;18.10;48.60;;;;;;5024031;28;20861;-63
2022/01/28 07:32:13;;;;;;;2.33;2.13;;;;;;;;;;5025429;28;20517;-63
2022/01/28 07:34:39;;;;;;;2.40;2.20;;;;;;;;;;5027168;28;20890;-63
2022/01/28 07:37:05;;;;;;;2.10;2.00;;;;;;;;;;5020792;28;20858;-64
2022/01/28 07:39:31;;;;;;;1.93;1.83;;;;;;;;;;5016471;28;20466;-63
2022/01/28 07:41:57;;;;;;;1.60;1.60;;;18.40;50.00;;;;;;5028300;28;20526;-63
2022/01/28 07:44:23;;;;;;;2.03;1.83;;;;;;;;;;5028815;28;20423;-64
2022/01/28 07:46:49;;;;;;;2.13;2.03;;;;;;;;;;5023520;28;20421;-64
2022/01/28 07:49:15;;;;;;;1.60;1.60;;;;;;;;;;5015101;28;20809;-63
2022/01/28 07:51:42;;;;;;;2.20;2.10;;;;;;;;;;5012957;28;20545;-64
2022/01/28 07:54:08;;;;;;;1.40;1.40;;;;;;;;;;5032879;28;20631;-63
2022/01/28 07:56:35;;;;;;;1.63;1.53;;;;;;;;;;5029866;28;20471;-63
2022/01/28 07:59:01;;;;;;;1.90;1.80;;;;;;;;;;5030909;28;20968;-63
2022/01/28 08:01:27;;;;;;;1.97;1.87;;;;;;;;;;5032411;28;20497;-64
2022/01/28 08:03:53;;;;;;;1.87;1.77;;;;;;;;;;5024479;28;20424;-64
2022/01/28 08:06:19;;;;;;;5.60;1.83;;;;;;;;;;5022666;28;20415;-63
2022/01/28 08:08:45;;;;;;;2.10;2.00;;;;;;;;;;5032590;28;20414;-63
2022/01/28 08:11:11;;;;;;;2.43;2.13;;;;;;;;;;5032379;28;20403;-63
2022/01/28 08:13:37;;;;;;;2.20;1.60;;;;;;;;;;5032600;28;20407;-62
2022/01/28 08:16:03;;;;;;;1.43;1.43;;;;;;;;;;5030856;28;20438;-62
2022/01/28 08:18:29;;;;;;;1.83;1.73;;;;;;;;;;5032788;28;20421;-62
2022/01/28 08:20:55;;;;;;;1.80;1.70;;;18.30;68.90;;;;;;5035985;28;20462;-61
2022/01/28 08:23:21;;;;;;;1.60;1.50;;;;;;;;;;5052443;28;20464;-61
2022/01/28 08:25:48;;;;;;;2.07;1.97;;;;;;;;;;5044797;28;20182;-63
2022/01/28 08:28:14;;;;;;;3.23;2.57;;;;;;;;;;5020033;28;20805;-62
2022/01/28 08:30:40;;;;;;;1.53;1.53;;;;;;;;;;5031648;28;20435;-62
2022/01/28 08:33:07;;;;;;;1.60;1.60;;;;;;;;;;5031531;28;20463;-62
2022/01/28 08:35:37;;;;;;;2.20;2.10;;;18.20;50.50;;;;;;5032389;28;20414;-62
2022/01/28 08:38:12;;;;;;;2.10;1.93;;;18.10;61.50;;;;;;5030324;28;20431;-63
2022/01/28 08:40:38;;;;;;;2.17;2.07;;;;;;;;;;5028093;28;20470;-64
2022/01/28 08:43:04;;;;;;;1.80;1.70;;;;;;;;;;5012296;28;20944;-64
2022/01/28 08:45:30;;;;;;;1.67;1.57;;;;;;;;;;5015575;28;20424;-64
2022/01/28 08:47:56;;;;;;;1.47;1.47;;;;;;;;;;5023001;28;20457;-65
2022/01/28 08:50:22;;;;;;;1.50;1.50;;;;;;;;;;5031631;28;20833;-63
2022/01/28 08:52:48;;;;;;;1.70;1.60;;;;;;;;;;5026605;28;20475;-62
2022/01/28 08:55:15;;;;;;;1.50;1.50;;;18.40;51.90;;;;;;5021145;28;20434;-63
2022/01/28 08:57:43;;;;;;;2.00;1.90;;;;;;;;;;5030252;28;20419;-63
2022/01/28 09:00:14;;;;;;;1.37;1.37;;;18.30;51.50;;;;;;5031068;28;20457;-63
2022/01/28 09:02:41;;;;;;;2.00;1.90;;;17.80;51.20;;;;;;5030441;28;20974;-63
2022/01/28 09:05:07;;;;;;;1.70;1.60;;;;;;;;;;5031423;28;20887;-63
2022/01/28 09:07:33;;;;;;;1.70;1.60;;;;;;;;;;5030949;28;20451;-63
2022/01/28 09:10:04;;;;;;;7.43;1.80;;;;;;;;;;5030685;28;20485;-63
2022/01/28 09:12:47;;;;;;;2.97;1.70;;;;;;;;;;5031008;28;20738;-63
2022/01/28 09:15:13;;;;;;;1.40;1.30;;;;;;;;;;5031367;28;20490;-63
2022/01/28 09:17:39;;;;;;;1.90;1.80;;;;;;;;;;5030606;28;20423;-63
2022/01/28 09:20:05;;;;;;;1.90;1.80;;;;;;;;;;5029855;28;20557;-63
2022/01/28 09:22:31;;;;;;;1.40;1.30;;;;;;;;;;5047387;28;20939;-67
2022/01/28 09:24:58;;;;;;;1.70;1.60;;;18.30;51.30;;;;;;5032467;28;20510;-62
2022/01/28 09:27:24;;;;;;;1.87;1.77;;;;;;;;;;5017939;28;20933;-63
2022/01/28 09:29:50;;;;;;;2.93;1.67;;;;;;;;;;5013190;28;20474;-63
2022/01/28 09:32:16;;;;;;;1.63;1.63;;;;;;;;;;5022424;28;20443;-62
2022/01/28 09:34:43;;;;;;;1.80;1.70;;;18.90;51.80;;;;;;5030531;28;20426;-63
2022/01/28 09:37:13;;;;;;;2.07;1.97;;;18.40;51.60;;;;;;5030587;28;20420;-63
2022/01/28 09:39:43;;;;;;;1.70;1.70;;;;;;;;;;5029908;28;20459;-64
2022/01/28 09:42:13;;;;;;;2.10;1.97;;;18.30;51.80;;;;;;5030088;28;20439;-64
2022/01/28 09:44:39;;;;;;;2.00;1.90;;;18.40;50.20;;;;;;5023345;28;20468;-61
2022/01/28 09:47:05;;;;;;;2.40;2.30;;;;;;;;;;5029951;28;20474;-61
2022/01/28 09:49:31;;;;;;;1.93;1.83;;;18.40;50.70;;;;;;5023828;28;20503;-62
2022/01/28 09:51:59;;;;;;;1.90;1.77;;;19.90;52.60;;;;;;5023070;28;20439;-62
2022/01/28 09:54:24;;;;;;;2.07;1.97;;;;;;;;;;5024213;28;20501;-61
2022/01/28 09:56:50;;;;;;;1.77;1.70;;;18.30;62.60;;;;;;5016377;28;20952;-62
2022/01/28 09:59:16;;;;;;;1.70;1.60;;;;;;;;;;5023949;28;20459;-62
2022/01/28 10:01:54;;;;;;;1.60;1.60;;;18.30;62.30;;;;;;5029055;28;20211;-62
2022/01/28 10:04:20;;;;;;;2.30;2.20;;;18.40;49.90;;;;;;5029684;28;20419;-62
2022/01/28 10:06:47;;;;;;;1.63;1.40;;;18.40;51.50;;;;;;5027899;28;20431;-62
2022/01/28 10:09:15;;;;;;;1.73;1.73;;;18.30;51.30;;;;;;5029626;28;20430;-62
2022/01/28 10:11:44;;;;;;;1.90;1.80;;;18.40;49.30;;;;;;5029679;28;20443;-62
2022/01/28 10:14:20;;;;;;;1.20;1.20;;;;;;;;;;5023428;28;20428;-61
2022/01/28 10:16:57;;;;;;;3.63;1.60;;;18.80;47.90;;;;;;5022644;28;20419;-62
2022/01/28 10:19:26;;;;;;;2.60;2.43;;;18.50;51.30;;;;;;5028187;28;20467;-63
2022/01/28 10:21:53;;;;;;;1.77;1.67;;;18.00;50.30;;;;;;5040962;28;20457;-64
2022/01/28 10:24:24;;;;;;;1.77;1.77;;;18.50;47.70;;;;;;5028999;28;20835;-63
2022/01/28 10:26:54;;;;;;;1.70;1.60;;;18.50;47.70;;;;;;5022779;28;20900;-63
2022/01/28 10:29:27;;;;;;;2.07;1.77;;;19.00;48.10;;;;;;5029567;28;20432;-63
2022/01/28 10:31:53;;;;;;;2.67;2.57;;;;;;;;;;5028883;28;20443;-62
2022/01/28 10:34:36;;;;;;;2.20;2.10;;;18.50;47.90;;;;;;5025610;28;20427;-61
2022/01/28 10:37:17;;;;;;;1.80;1.70;;;18.60;48.00;;;;;;5016747;28;20527;-61
2022/01/28 10:39:49;;;;;;;2.60;1.60;;;18.60;52.10;;;;;;5027721;28;20490;-60
2022/01/28 10:42:25;;;;;;;3.27;2.43;;;19.10;52.30;;;;;;5027502;28;21051;-61
2022/01/28 10:45:11;;;;;;;1.73;1.63;;;18.70;48.30;;;;;;5012863;28;20446;-62
2022/01/28 10:47:38;;;;;;;2.00;1.90;;;18.70;52.00;;;;;;5024947;28;20430;-61
2022/01/28 10:50:18;;;;;;;1.50;1.50;;;18.60;55.10;;;;;;5016450;28;20522;-62
2022/01/28 10:52:44;;;;;;;1.33;1.23;;;;;;;;;;5024710;28;20462;-63
2022/01/28 10:55:18;;;;;;;1.80;1.70;;;18.70;75.90;;;;;;5011531;28;20784;-62
2022/01/28 10:57:59;;;;;;;1.30;1.30;;;18.60;51.90;;;;;;5023607;28;20427;-63
2022/01/28 11:00:28;;;;;;;1.77;1.67;;;18.70;51.60;;;;;;5025863;28;20659;-63
2022/01/28 11:02:54;;;;;;;1.60;1.50;;;;;;;;;;5027677;28;20447;-63
2022/01/28 11:05:21;;;;;;;2.00;1.90;;;;;;;;;;5019596;28;20482;-62
2022/01/28 11:07:48;;;;;;;1.90;1.80;;;;;;;;;;5012880;28;20432;-62
2022/01/28 11:10:14;;;;;;;1.30;1.30;;;;;;;;;;5009269;28;20421;-62
2022/01/28 11:12:40;;;;;;;1.60;1.60;;;18.50;51.50;;;;;;5009313;28;20432;-62
2022/01/28 11:15:06;;;;;;;1.60;1.50;;;18.90;51.90;;;;;;5009486;28;20419;-63
2022/01/28 11:17:35;;;;;;;1.73;1.63;;;;;;;;;;5023823;28;20427;-63
2022/01/28 11:20:02;;;;;;;1.87;1.77;;;;;;;;;;5028448;28;20557;-64
2022/01/28 11:22:45;;;;;;;2.90;1.70;;;18.80;48.10;;;;;;5026850;28;20887;-64
2022/01/28 11:25:56;;;;;;;1.60;1.50;;;18.90;57.10;;;;;;5023888;28;20510;-64
2022/01/28 11:28:47;;;;;;;2.33;2.23;;;18.80;51.30;;;;;;5027357;28;20829;-63
2022/01/28 11:31:14;;;;;;;1.90;1.80;;;18.80;67.60;;;;;;5027249;28;20473;-63
2022/01/28 11:33:50;;;;;;;2.00;1.63;;;18.70;71.20;;;;;;5010242;28;20439;-63
2022/01/28 11:36:35;;;;;;;1.10;1.03;;;18.70;47.70;;;;;;5017114;28;20427;-64
2022/01/28 11:39:18;;;;;;;1.87;1.77;;;18.80;51.30;;;;;;5008741;28;20869;-63
2022/01/28 11:42:00;;;;;;;1.50;1.50;;;19.20;51.50;;;;;;5008553;28;20459;-63
2022/01/28 11:44:51;;;;;;;1.40;1.30;;;18.80;47.70;;;;;;5015141;28;20427;-63
2022/01/28 11:47:24;;;;;;;1.33;1.33;;;18.80;47.80;;;;;;5046335;28;20770;-63
2022/01/28 11:50:05;;;;;;;1.30;1.30;;;18.90;47.50;;;;;;5048311;28;20464;-63
2022/01/28 11:52:38;;;;;;;1.43;1.33;;;18.90;51.10;;;;;;5032567;28;21002;-63
2022/01/28 11:55:25;;;;;;;1.23;1.13;;;18.90;47.50;;;;;;5021505;28;20435;-63
2022/01/28 11:58:13;;;;;;;1.27;1.27;;;18.90;47.30;;;;;;5024370;28;20450;-64
2022/01/28 12:00:39;;;;;;;1.70;1.60;;;;;;;;;;5027871;28;20476;-64
2022/01/28 12:03:19;;;;;;;1.07;1.07;;;19.00;47.30;;;;;;5033274;28;20863;-64
2022/01/28 12:05:45;;;;;;;2.90;1.70;;;;;;;;;;5027567;28;20432;-64
2022/01/28 12:08:13;;;;;;;1.20;1.20;;;19.10;50.90;;;;;;5011733;28;20489;-64
2022/01/28 12:10:44;;;;;;;1.60;1.50;;;19.10;50.80;;;;;;5019314;28;20861;-64
2022/01/28 12:13:16;;;;;;;1.73;1.63;;;19.10;51.10;;;;;;5025406;28;20458;-64
2022/01/28 12:16:00;;;;;;;1.60;1.50;;;19.10;47.40;;;;;;5026663;28;20435;-64
2022/01/28 12:18:45;;;;;;;1.40;1.40;;;19.20;51.10;;;;;;5017516;28;20443;-64
2022/01/28 12:21:15;;;;;;;1.77;1.67;;;19.10;47.10;;;;;;5027050;28;20479;-64
2022/01/28 12:23:43;;;;;;;1.40;1.40;;;;;;;;;;5038305;28;20422;-64
2022/01/28 12:26:11;;;;;;;1.57;1.47;;;19.00;48.40;;;;;;5014706;28;20418;-64
2022/01/28 12:28:37;;;;;;;1.20;1.10;;;;;;;;;;5027216;28;20426;-64
2022/01/28 12:31:03;;;;;;;1.50;1.50;;;;;;;;;;5017721;28;20483;-64
2022/01/28 12:33:36;;;;;;;1.50;1.50;;;19.20;50.80;;;;;;5047870;28;20206;-64
2022/01/28 12:36:23;;;;;;;1.20;1.20;;;19.10;49.60;;;;;;5028795;28;20432;-70
2022/01/28 12:39:08;;;;;;;1.43;1.33;;;19.20;50.90;;;;;;5026496;28;20436;-67
2022/01/28 12:41:43;;;;;;;2.33;1.30;;;19.40;49.00;;;;;;5028291;28;20529;-61
2022/01/28 12:44:10;;;;;;;7.10;1.50;;;19.40;51.10;;;;;;5032045;28;20405;-62
2022/01/28 12:46:39;;;;;;;1.47;1.47;;;19.40;51.40;;;;;;5017643;28;20423;-63
2022/01/28 12:49:09;;;;;;;1.60;1.50;;;19.40;51.10;;;;;;5019031;28;20455;-63
2022/01/28 12:51:39;;;;;;;2.10;1.50;;;19.50;47.70;;;;;;5031798;28;20945;-64
2022/01/28 12:54:05;;;;;;;1.30;1.30;;;19.50;52.70;;;;;;5043426;28;20398;-62
2022/01/28 12:56:39;;;;;;;1.50;1.50;;;19.20;47.40;;;;;;5034894;28;20513;-62
2022/01/28 12:59:05;;;;;;;3.23;1.30;;;;;;;;;;5031211;28;20494;-64
2022/01/28 13:01:32;;;;;;;1.87;1.73;;;19.50;51.40;;;;;;5031345;28;20481;-64
2022/01/28 13:04:16;;;;;;;2.33;2.13;;;19.60;47.80;;;;;;5024825;28;20477;-63
2022/01/28 13:06:59;;;;;;;1.70;1.70;;;;;;;;;;5025645;28;20442;-63
2022/01/28 13:09:25;;;;;;;1.20;1.20;;;;;;;;;;5031607;28;20399;-62
2022/01/28 13:11:51;;;;;;;1.47;1.40;;;;;;;;;;5030896;28;20432;-62
2022/01/28 13:14:36;;;;;;;1.30;1.30;;;19.50;48.60;;;;;;5030820;28;20484;-62
2022/01/28 13:17:05;;;;;;;1.10;1.10;;;19.60;53.80;;;;;;5027421;28;20452;-63
2022/01/28 13:19:31;;;;;;;1.40;1.40;;;19.60;51.20;;;;;;5011996;28;20505;-62
2022/01/28 13:21:57;;;;;;;1.07;1.07;;;;;;;;;;5032906;28;20753;-62
2022/01/28 13:24:28;;;;;;;1.50;1.43;;;19.40;53.20;;;;;;5038795;28;20419;-63
2022/01/28 13:26:59;;;;;;;1.60;1.60;;;19.60;48.40;;;;;;5029678;28;20427;-64
2022/01/28 13:29:53;;;;;;;1.17;1.07;;;19.70;56.60;;;;;;5031569;28;20438;-64
2022/01/28 13:32:25;;;;;;;1.70;1.60;;;19.60;53.40;;;;;;5011950;28;20455;-63
2022/01/28 13:34:58;;;;;;;1.43;1.33;;;19.20;48.50;;;;;;5034205;28;21092;-65
2022/01/28 13:37:40;;;;;;;1.00;1.00;;;19.60;48.70;;;;;;5037620;28;21178;-64
2022/01/28 13:40:18;;;;;;;1.37;1.10;;;19.80;48.50;;;;;;5011053;28;20769;-62
2022/01/28 13:43:19;;;;;;;1.40;1.40;;;19.50;48.40;;;;;;5011466;28;20744;-62
2022/01/28 13:45:51;;;;;;;1.23;1.23;;;19.70;53.90;;;;;;5011053;28;20430;-63
2022/01/28 13:48:31;;;;;;;1.23;1.23;;;19.70;49.00;;;;;;5010336;28;20443;-63
2022/01/28 13:51:23;;;;;;;1.10;1.10;;;19.40;53.50;;;;;;5016345;28;20415;-63
2022/01/28 13:56:38;;;;;;;1.00;1.00;;;19.80;53.30;;;;;;5025847;28;20500;-62
2022/01/28 13:59:16;;;;;;;1.30;1.30;;;19.90;48.30;;;;;;5021418;28;20801;-62
2022/01/28 14:01:46;;;;;;;1.50;1.40;;;19.90;48.40;;;;;;5022333;28;20455;-61
2022/01/28 14:04:22;;;;;;;1.57;1.57;;;19.90;48.70;;;;;;5023101;28;20421;-62
2022/01/28 14:06:48;;;;;;;1.00;1.00;;;;;;;;;;5026389;28;20564;-64
2022/01/28 14:09:19;;;;;;;1.00;1.00;;;19.90;53.30;;;;;;5025334;28;20642;-63
2022/01/28 14:11:49;;;;;;;1.60;1.50;;;19.90;53.20;;;;;;5029927;28;20437;-65
2022/01/28 14:14:32;;;;;;;1.90;1.80;;;19.80;48.40;;;;;;5030500;28;20406;-63
2022/01/28 14:17:04;;;;;;;1.50;1.40;;;19.80;47.90;;;;;;5022051;28;20487;-61
2022/01/28 14:19:35;;;;;;;1.97;1.87;;;19.90;53.40;;;;;;5011901;28;20464;-64
2022/01/28 14:22:02;;;;;;;1.30;1.20;;;19.90;53.00;;;;;;5022330;28;20449;-64
2022/01/28 14:24:32;;;;;;;1.33;1.27;;;19.90;53.20;;;;;;5022885;28;20529;-63
2022/01/28 14:32:08;;;;;;;1.50;1.40;;;19.90;52.90;;;;;;5019739;28;20493;-62
2022/01/28 14:34:34;;;;;;;1.20;1.13;;;19.90;51.70;;;;;;5028144;28;20547;-61
2022/01/28 14:37:02;;;;;;;1.03;0.97;;;;;;;;;;5022624;28;20431;-62
2022/01/28 14:39:28;;;;;;;1.33;1.33;;;;;;;;;;5021610;28;20474;-62
2022/01/28 14:41:56;;;;;;;1.90;1.10;;;;;;;;;;5025867;28;20464;-62
2022/01/28 14:44:22;;;;;;;1.40;1.30;;;;;;;;;;5029921;28;20403;-62
2022/01/28 14:46:48;;;;;;;1.20;1.10;;;;;;;;;;5028478;28;20427;-62
2022/01/28 14:49:14;;;;;;;1.30;1.20;;;;;;;;;;5026666;28;20431;-62
2022/01/28 14:51:42;;;;;;;1.30;1.30;;;;;;;;;;5026980;28;20485;-62
2022/01/28 14:54:08;;;;;;;1.57;1.57;;;;;;;;;;5029859;28;20821;-62
2022/01/28 14:56:34;;;;;;;2.47;1.53;;;;;;;;;;5025484;28;20849;-62
2022/01/28 14:59:01;;;;;;;1.70;1.60;;;;;;;;;;5009886;28;20404;-62
2022/01/28 15:01:28;;;;;;;1.73;1.63;;;19.70;52.50;;;;;;5009614;28;20471;-62
2022/01/28 15:03:54;;;;;;;1.30;1.20;;;;;;;;;;5011360;28;20436;-62
2022/01/28 15:06:22;;;;;;;1.63;1.53;;;;;;;;;;5017746;28;20429;-62
2022/01/28 15:08:49;;;;;;;17.00;1.87;;;;;;;;;;5029473;28;20414;-62
2022/01/28 15:11:23;;;;;;;2.80;1.90;;;;;;;;;;5029252;28;20430;-62
2022/01/28 15:13:49;;;;;;;4.83;1.97;;;;;;;;;;5016194;28;20924;-62
2022/01/28 15:16:18;;;;;;;2.57;1.80;;;;;;;;;;5009729;28;20419;-62
2022/01/28 15:18:44;;;;;;;1.60;1.50;;;19.60;52.80;;;;;;5009869;28;20408;-62
2022/01/28 15:21:10;;;;;;;2.60;1.90;;;;;;;;;;5016214;28;20570;-62
2022/01/28 15:23:39;;;;;;;2.60;1.60;;;19.60;62.50;;;;;;5026685;28;20423;-62
2022/01/28 15:26:05;;;;;;;2.83;1.97;;;;;;;;;;5019164;28;20776;-62
2022/01/28 15:28:37;;;;;;;2.70;1.53;;;;;;;;;;5029079;28;20505;-62
2022/01/28 15:36:32;;;;;;;2.13;1.80;;;;;;;;;;5022663;28;20488;-62
2022/01/28 15:38:58;;;;;;;3.20;1.90;;;;;;;;;;5027662;28;20446;-62
2022/01/28 15:41:24;;;;;;;2.60;2.00;;;;;;;;;;5028447;28;20462;-62
2022/01/28 15:43:50;;;;;;;1.67;1.57;;;;;;;;;;5027539;28;20423;-62
2022/01/28 15:46:16;;;;;;;1.83;1.73;;;;;;;;;;5028587;28;20430;-62